createdAt,value
2022-11-24T00:00:34.903Z,42.92
2022-11-24T00:03:01.369Z,41.30
2022-11-24T00:05:27.730Z,39.58
2022-11-24T00:07:54.073Z,39.70
2022-11-24T00:10:20.588Z,36.03
2022-11-24T00:12:46.904Z,35.42
2022-11-24T00:15:13.241Z,40.30
2022-11-24T00:17:41.388Z,39.42
2022-11-24T00:20:07.709Z,36.42
2022-11-24T00:22:34.205Z,38.67
2022-11-24T00:25:00.520Z,42.92
2022-11-24T00:27:26.829Z,36.10
2022-11-24T00:29:53.385Z,38.75
2022-11-24T00:32:19.705Z,41.33
2022-11-24T00:34:46.035Z,33.25
2022-11-24T00:37:12.372Z,38.13
2022-11-24T00:39:38.693Z,37.17
2022-11-24T00:42:05.129Z,41.97
2022-11-24T00:44:31.753Z,35.58
2022-11-24T00:46:58.843Z,34.20
2022-11-24T00:49:25.283Z,41.03
2022-11-24T00:51:51.608Z,41.45
2022-11-24T00:54:18.270Z,44.28
2022-11-24T00:56:46.261Z,33.17
2022-11-24T00:59:12.574Z,36.85
2022-11-24T01:01:39.304Z,38.42
2022-11-24T01:04:05.965Z,35.17
2022-11-24T01:06:32.882Z,39.63
2022-11-24T01:08:59.270Z,39.53
2022-11-24T01:11:25.601Z,41.08
2022-11-24T01:13:51.963Z,40.80
2022-11-24T01:16:18.744Z,43.30
2022-11-24T01:18:45.104Z,39.75
2022-11-24T01:21:11.531Z,43.78
2022-11-24T01:23:37.866Z,35.20
2022-11-24T01:26:04.201Z,38.35
2022-11-24T01:28:30.689Z,41.25
2022-11-24T01:30:57.151Z,39.65
2022-11-24T01:33:25.295Z,46.47
2022-11-24T01:35:51.634Z,44.10
2022-11-24T01:38:21.342Z,39.15
2022-11-24T01:40:47.698Z,40.40
2022-11-24T01:43:14.016Z,41.53
2022-11-24T01:45:41.249Z,37.90
2022-11-24T01:48:07.653Z,43.17
2022-11-24T01:50:34.255Z,37.97
2022-11-24T01:53:00.615Z,37.27
2022-11-24T01:55:26.967Z,37.60
2022-11-24T01:57:53.308Z,42.95
2022-11-24T02:00:19.625Z,38.13
2022-11-24T02:02:46.001Z,33.72
2022-11-24T02:05:12.383Z,41.28
2022-11-24T02:07:38.756Z,38.30
2022-11-24T02:10:05.121Z,38.80
2022-11-24T02:12:31.458Z,40.85
2022-11-24T02:14:57.772Z,43.70
2022-11-24T02:17:24.131Z,41.05
2022-11-24T02:19:53.032Z,40.40
2022-11-24T02:22:19.411Z,39.03
2022-11-24T02:24:45.891Z,36.25
2022-11-24T02:27:12.212Z,40.30
2022-11-24T02:29:38.608Z,39.03
2022-11-24T02:32:05.064Z,40.22
2022-11-24T02:34:31.570Z,41.65
2022-11-24T02:36:57.985Z,39.47
2022-11-24T02:39:24.315Z,37.35
2022-11-24T02:41:50.715Z,34.83
2022-11-24T02:44:17.025Z,39.65
2022-11-24T02:46:43.395Z,39.53
2022-11-24T02:49:09.782Z,41.85
2022-11-24T02:51:36.115Z,41.08
2022-11-24T02:54:02.504Z,36.40
2022-11-24T02:56:28.828Z,38.58
2022-11-24T02:58:55.145Z,36.00
2022-11-24T03:01:21.556Z,46.55
2022-11-24T03:03:47.960Z,39.65
2022-11-24T03:06:14.639Z,40.85
2022-11-24T03:08:40.954Z,39.20
2022-11-24T03:11:07.269Z,37.58
2022-11-24T03:13:33.599Z,35.63
2022-11-24T03:15:59.994Z,38.53
2022-11-24T03:18:30.201Z,36.10
2022-11-24T03:20:56.522Z,39.45
2022-11-24T03:23:22.851Z,42.88
2022-11-24T03:25:49.174Z,39.92
2022-11-24T03:28:15.497Z,42.43
2022-11-24T03:30:41.886Z,39.83
2022-11-24T03:33:08.423Z,41.42
2022-11-24T03:35:34.786Z,43.47
2022-11-24T03:38:01.090Z,38.63
2022-11-24T03:40:27.472Z,42.10
2022-11-24T03:42:53.791Z,47.20
2022-11-24T03:45:44.958Z,38.70
2022-11-24T03:48:06.409Z,38.50
2022-11-24T03:50:32.802Z,34.90
2022-11-24T03:52:59.152Z,41.83
2022-11-24T03:55:25.493Z,39.67
2022-11-24T03:57:51.903Z,46.60
2022-11-24T04:00:18.251Z,37.05
2022-11-24T04:02:44.658Z,41.03
2022-11-24T04:05:11.027Z,41.15
2022-11-24T04:07:37.476Z,46.92
2022-11-24T04:10:03.866Z,41.13
2022-11-24T04:12:49.184Z,47.88
2022-11-24T04:15:15.508Z,40.40
2022-11-24T04:17:41.830Z,45.05
2022-11-24T04:20:08.257Z,40.70
2022-11-24T04:22:35.262Z,41.23
2022-11-24T04:25:01.580Z,42.23
2022-11-24T04:27:27.900Z,45.28
2022-11-24T04:29:54.273Z,50.47
2022-11-24T04:32:20.598Z,40.80
2022-11-24T04:34:46.911Z,45.80
2022-11-24T04:37:13.228Z,37.23
2022-11-24T04:39:39.557Z,35.83
2022-11-24T04:42:05.865Z,44.53
2022-11-24T04:44:32.713Z,39.33
2022-11-24T04:46:59.312Z,39.53
2022-11-24T04:49:25.715Z,43.67
2022-11-24T04:51:52.048Z,38.05
2022-11-24T04:54:18.486Z,46.42
2022-11-24T04:56:44.818Z,39.88
2022-11-24T04:59:11.127Z,41.37
2022-11-24T05:01:37.777Z,41.72
2022-11-24T05:04:04.157Z,53.70
2022-11-24T05:06:30.568Z,45.70
2022-11-24T05:08:56.922Z,40.67
2022-11-24T05:11:23.239Z,41.83
2022-11-24T05:13:49.554Z,42.62
2022-11-24T05:16:16.032Z,42.25
2022-11-24T05:18:42.441Z,36.70
2022-11-24T05:21:08.808Z,42.05
2022-11-24T05:23:35.323Z,43.05
2022-11-24T05:26:01.635Z,40.08
2022-11-24T05:28:27.961Z,39.53
2022-11-24T05:30:54.339Z,42.80
2022-11-24T05:33:23.166Z,39.97
2022-11-24T05:35:53.180Z,37.63
2022-11-24T05:38:19.574Z,44.83
2022-11-24T05:40:45.950Z,39.22
2022-11-24T05:43:12.372Z,41.60
2022-11-24T05:45:38.904Z,33.37
2022-11-24T05:48:05.764Z,38.03
2022-11-24T05:50:32.085Z,38.67
2022-11-24T05:52:58.587Z,38.50
2022-11-24T05:55:24.903Z,31.98
2022-11-24T05:57:51.209Z,31.17
2022-11-24T06:00:18.602Z,35.03
2022-11-24T06:02:45.096Z,30.88
2022-11-24T06:05:11.530Z,35.53
2022-11-24T06:07:37.901Z,33.15
2022-11-24T06:10:04.287Z,33.78
2022-11-24T06:12:30.622Z,33.20
2022-11-24T06:14:56.960Z,33.55
2022-11-24T06:17:23.298Z,30.52
2022-11-24T06:19:51.745Z,29.58
2022-11-24T06:22:19.349Z,35.88
2022-11-24T06:24:46.407Z,31.10
2022-11-24T06:27:12.755Z,30.73
2022-11-24T06:29:39.123Z,30.53
2022-11-24T06:32:05.534Z,33.43
2022-11-24T06:34:32.241Z,32.88
2022-11-24T06:36:58.924Z,33.65
2022-11-24T06:39:25.253Z,37.25
2022-11-24T06:41:51.566Z,36.67
2022-11-24T06:44:18.055Z,33.03
2022-11-24T06:46:44.388Z,32.13
2022-11-24T06:49:10.737Z,33.67
2022-11-24T06:51:37.145Z,31.92
2022-11-24T06:54:03.923Z,30.58
2022-11-24T06:56:30.398Z,35.03
2022-11-24T06:58:56.718Z,31.25
2022-11-24T07:01:23.234Z,33.35
2022-11-24T07:03:49.678Z,31.35
2022-11-24T07:08:49.390Z,70.85
2022-11-24T07:11:15.774Z,52.38
2022-11-24T07:13:42.242Z,44.47
2022-11-24T07:16:08.593Z,38.72
2022-11-24T07:18:34.911Z,31.87
2022-11-24T07:21:01.264Z,58.80
2022-11-24T07:23:27.592Z,54.63
2022-11-24T07:25:53.920Z,44.40
2022-11-24T07:28:20.234Z,49.38
2022-11-24T07:30:46.554Z,33.65
2022-11-24T07:33:16.116Z,35.28
2022-11-24T07:35:42.421Z,28.83
2022-11-24T07:38:08.770Z,31.52
2022-11-24T07:40:35.091Z,33.15
2022-11-24T07:43:01.864Z,33.63
2022-11-24T07:45:28.393Z,36.42
2022-11-24T07:47:55.135Z,33.67
2022-11-24T07:50:21.454Z,77.75
2022-11-24T07:52:47.757Z,52.70
2022-11-24T07:55:14.210Z,36.35
2022-11-24T07:57:41.218Z,35.90
2022-11-24T08:00:07.584Z,50.25
2022-11-24T08:02:33.958Z,88.45
2022-11-24T08:05:00.278Z,89.65
2022-11-24T08:07:26.694Z,96.57
2022-11-24T08:09:53.106Z,81.07
2022-11-24T08:12:21.876Z,51.40
2022-11-24T08:14:48.459Z,35.63
2022-11-24T08:17:14.840Z,36.63
2022-11-24T08:19:41.233Z,34.53
2022-11-24T08:22:07.649Z,36.30
2022-11-24T08:24:34.159Z,34.72
2022-11-24T08:27:00.950Z,33.30
2022-11-24T08:29:27.311Z,29.87
2022-11-24T08:31:53.757Z,33.17
2022-11-24T08:34:20.128Z,28.73
2022-11-24T08:36:46.448Z,30.83
2022-11-24T08:39:13.063Z,28.02
2022-11-24T08:41:39.377Z,26.20
2022-11-24T08:44:05.757Z,32.22
2022-11-24T08:46:32.164Z,26.52
2022-11-24T08:48:58.555Z,30.17
2022-11-24T08:51:25.150Z,28.87
2022-11-24T08:53:51.485Z,29.35
2022-11-24T08:56:18.036Z,25.95
2022-11-24T08:58:44.483Z,30.95
2022-11-24T09:01:10.933Z,28.67
2022-11-24T09:03:38.386Z,31.65
2022-11-24T09:06:04.844Z,29.08
2022-11-24T09:08:31.201Z,29.08
2022-11-24T09:10:57.520Z,26.75
2022-11-24T09:13:23.853Z,27.37
2022-11-24T09:15:50.154Z,27.33
2022-11-24T09:18:16.521Z,27.92
2022-11-24T09:20:42.834Z,29.95
2022-11-24T09:23:09.167Z,27.00
2022-11-24T09:25:35.547Z,27.50
2022-11-24T09:28:01.932Z,26.30
2022-11-24T09:30:28.636Z,25.48
2022-11-24T09:32:55.233Z,26.50
2022-11-24T09:35:21.549Z,28.05
2022-11-24T09:37:48.463Z,42.58
2022-11-24T09:40:18.098Z,58.85
2022-11-24T09:42:48.077Z,104.12
2022-11-24T09:45:26.272Z,51.53
2022-11-24T09:48:02.300Z,42.72
2022-11-24T09:50:28.662Z,27.33
2022-11-24T09:52:59.285Z,27.95
2022-11-24T09:55:25.593Z,24.77
2022-11-24T09:57:51.943Z,29.08
2022-11-24T10:00:18.255Z,25.58
2022-11-24T10:02:44.606Z,26.80
2022-11-24T10:05:10.983Z,29.85
2022-11-24T10:07:38.162Z,33.40
2022-11-24T10:10:04.675Z,32.67
2022-11-24T10:12:31.124Z,30.02
2022-11-24T10:14:57.971Z,33.28
2022-11-24T10:17:24.398Z,29.27
2022-11-24T10:19:50.783Z,30.12
2022-11-24T10:22:17.149Z,29.80
2022-11-24T10:24:43.511Z,26.10
2022-11-24T10:27:09.847Z,26.40
2022-11-24T10:29:36.523Z,26.23
2022-11-24T10:32:03.074Z,24.85
2022-11-24T10:34:29.421Z,25.77
2022-11-24T10:36:55.766Z,25.12
2022-11-24T10:39:22.117Z,26.40
2022-11-24T10:41:48.628Z,26.55
2022-11-24T10:44:15.615Z,25.75
2022-11-24T10:46:42.237Z,25.00
2022-11-24T10:49:08.616Z,26.50
2022-11-24T10:51:34.984Z,29.83
2022-11-24T10:54:01.312Z,28.75
2022-11-24T10:56:27.639Z,26.77
2022-11-24T10:58:54.106Z,24.55
2022-11-24T11:01:20.841Z,29.60
2022-11-24T11:03:47.943Z,28.73
2022-11-24T11:06:14.261Z,31.45
2022-11-24T11:08:40.676Z,31.35
2022-11-24T11:11:07.034Z,26.98
2022-11-24T11:13:33.478Z,32.28
2022-11-24T11:15:59.849Z,25.67
2022-11-24T11:18:26.414Z,25.75
2022-11-24T11:20:52.878Z,28.55
2022-11-24T11:23:19.305Z,28.77
2022-11-24T11:25:45.651Z,26.00
2022-11-24T11:28:17.682Z,28.10
2022-11-24T11:36:17.288Z,24.87
2022-11-24T11:38:43.680Z,27.75
2022-11-24T11:41:10.037Z,26.00
2022-11-24T11:43:36.480Z,29.10
2022-11-24T11:46:02.829Z,23.52
2022-11-24T11:48:33.653Z,24.52
2022-11-24T11:53:49.855Z,24.45
2022-11-24T11:56:16.627Z,23.60
2022-11-24T11:58:43.047Z,25.45
2022-11-24T12:01:09.383Z,25.50
2022-11-24T12:03:35.884Z,26.30
2022-11-24T12:06:02.293Z,24.52
2022-11-24T12:08:28.774Z,24.70
2022-11-24T12:10:55.070Z,25.00
2022-11-24T12:13:21.431Z,27.15
2022-11-24T12:15:47.791Z,23.33
2022-11-24T12:18:40.300Z,25.70
2022-11-24T12:21:01.176Z,27.90
2022-11-24T12:23:27.975Z,30.23
2022-11-24T12:25:54.310Z,27.48
2022-11-24T12:28:20.635Z,26.75
2022-11-24T12:30:47.099Z,29.83
2022-11-24T12:33:13.453Z,27.20
2022-11-24T12:35:39.865Z,28.12
2022-11-24T12:38:06.622Z,31.95
2022-11-24T12:40:32.932Z,27.67
2022-11-24T12:42:59.307Z,30.00
2022-11-24T12:45:25.635Z,28.27
2022-11-24T12:47:51.957Z,26.92
2022-11-24T12:50:18.339Z,31.55
2022-11-24T12:52:44.675Z,28.95
2022-11-24T12:55:11.047Z,29.30
2022-11-24T12:57:37.380Z,31.05
2022-11-24T13:00:03.725Z,28.20
2022-11-24T13:02:30.200Z,30.77
2022-11-24T13:04:56.683Z,29.00
2022-11-24T13:07:25.086Z,30.75
2022-11-24T13:09:51.422Z,27.77
2022-11-24T13:12:17.874Z,34.15
2022-11-24T13:14:44.201Z,32.38
2022-11-24T13:19:56.823Z,33.38
2022-11-24T13:22:23.362Z,31.55
2022-11-24T13:24:49.732Z,29.55
2022-11-24T13:27:16.212Z,33.42
2022-11-24T13:29:42.593Z,30.95
2022-11-24T13:32:08.901Z,28.67
2022-11-24T13:34:35.537Z,26.90
2022-11-24T13:37:28.971Z,29.52
2022-11-24T13:39:50.546Z,33.22
2022-11-24T13:42:43.251Z,28.45
2022-11-24T13:45:03.848Z,28.83
2022-11-24T13:47:30.180Z,29.65
2022-11-24T13:49:57.092Z,26.95
2022-11-24T13:52:23.613Z,31.20
2022-11-24T13:54:49.947Z,27.50
2022-11-24T13:57:16.301Z,25.70
2022-11-24T13:59:42.643Z,26.80
2022-11-24T14:02:09.067Z,29.37
2022-11-24T14:04:39.577Z,32.88
2022-11-24T14:07:08.371Z,28.58
2022-11-24T14:09:35.700Z,33.78
2022-11-24T14:12:02.340Z,33.70
2022-11-24T14:14:28.774Z,31.67
2022-11-24T14:16:55.103Z,29.83
2022-11-24T14:19:21.761Z,30.70
2022-11-24T14:21:48.159Z,30.52
2022-11-24T14:24:14.548Z,34.42
2022-11-24T14:26:40.925Z,35.05
2022-11-24T14:29:07.447Z,33.67
2022-11-24T14:31:33.910Z,36.38
2022-11-24T14:34:00.340Z,34.15
2022-11-24T14:36:26.680Z,37.90
2022-11-24T14:38:53.032Z,35.63
2022-11-24T14:41:19.503Z,37.08
2022-11-24T14:43:45.858Z,37.00
2022-11-24T14:46:12.441Z,35.47
2022-11-24T14:48:38.826Z,32.53
2022-11-24T14:51:05.615Z,33.40
2022-11-24T14:53:31.963Z,33.58
2022-11-24T14:55:58.280Z,31.00
2022-11-24T14:58:24.646Z,34.88
2022-11-24T15:00:51.076Z,37.08
2022-11-24T15:03:17.617Z,38.58
2022-11-24T15:05:43.928Z,38.50
2022-11-24T15:08:10.259Z,37.15
2022-11-24T15:10:36.642Z,38.70
2022-11-24T15:13:03.006Z,32.92
2022-11-24T15:15:29.310Z,34.67
2022-11-24T15:17:55.639Z,34.20
2022-11-24T15:20:21.948Z,37.20
2022-11-24T15:22:49.505Z,32.47
2022-11-24T15:25:15.815Z,39.40
2022-11-24T15:27:42.318Z,38.80
2022-11-24T15:30:08.631Z,35.33
2022-11-24T15:32:34.951Z,41.25
2022-11-24T15:35:01.422Z,38.00
2022-11-24T15:37:31.388Z,38.03
2022-11-24T15:40:00.682Z,39.67
2022-11-24T15:42:27.163Z,42.05
2022-11-24T15:44:53.480Z,39.63
2022-11-24T15:47:19.946Z,45.75
2022-11-24T15:49:46.268Z,34.28
2022-11-24T15:52:17.546Z,39.30
2022-11-24T15:54:43.858Z,38.38
2022-11-24T15:57:10.194Z,46.60
2022-11-24T15:59:37.282Z,41.05
2022-11-24T16:02:06.974Z,39.42
2022-11-24T16:04:33.865Z,45.03
2022-11-24T16:07:01.026Z,44.03
2022-11-24T16:09:27.389Z,49.30
2022-11-24T16:11:54.556Z,48.60
2022-11-24T16:14:20.993Z,45.45
2022-11-24T16:16:49.681Z,48.83
2022-11-24T16:19:16.040Z,52.53
2022-11-24T16:21:42.350Z,63.30
2022-11-24T16:24:08.728Z,58.40
2022-11-24T16:26:35.032Z,50.33
2022-11-24T16:29:01.984Z,54.80
2022-11-24T16:31:28.459Z,59.67
2022-11-24T16:33:54.839Z,51.10
2022-11-24T16:36:21.175Z,56.50
2022-11-24T16:38:47.620Z,50.30
2022-11-24T16:41:14.467Z,52.22
2022-11-24T16:43:40.843Z,61.40
2022-11-24T16:46:07.225Z,60.10
2022-11-24T16:48:33.671Z,60.90
2022-11-24T16:51:00.005Z,58.80
2022-11-24T16:53:26.374Z,48.85
2022-11-24T16:55:52.687Z,56.35
2022-11-24T16:58:19.004Z,55.05
2022-11-24T17:00:45.337Z,49.78
2022-11-24T17:03:11.688Z,57.60
2022-11-24T17:05:38.052Z,54.33
2022-11-24T17:08:04.362Z,59.20
2022-11-24T17:10:30.679Z,63.65
2022-11-24T17:12:56.990Z,55.08
2022-11-24T17:15:33.632Z,65.53
2022-11-24T17:18:23.363Z,63.38
2022-11-24T17:20:48.581Z,55.75
2022-11-24T17:23:15.746Z,56.05
2022-11-24T17:25:42.107Z,58.55
2022-11-24T17:28:08.439Z,58.40
2022-11-24T17:30:34.741Z,53.20
2022-11-24T17:33:02.900Z,60.67
2022-11-24T17:35:29.197Z,53.20
2022-11-24T17:37:57.188Z,51.60
2022-11-24T17:40:30.792Z,52.95
2022-11-24T17:42:57.191Z,56.10
2022-11-24T17:45:23.520Z,55.08
2022-11-24T17:47:49.891Z,54.30
2022-11-24T17:50:17.483Z,51.35
2022-11-24T17:52:45.388Z,54.45
2022-11-24T17:55:11.769Z,56.95
2022-11-24T17:57:38.114Z,55.85
2022-11-24T18:00:04.444Z,54.03
2022-11-24T18:02:30.947Z,52.38
2022-11-24T18:04:57.350Z,48.90
2022-11-24T18:07:23.717Z,48.67
2022-11-24T18:09:50.057Z,52.22
2022-11-24T18:12:16.473Z,50.20
2022-11-24T18:14:42.836Z,49.30
2022-11-24T18:17:10.254Z,54.47
2022-11-24T18:19:36.634Z,50.17
2022-11-24T18:22:03.089Z,56.37
2022-11-24T18:24:29.479Z,54.08
2022-11-24T18:26:55.801Z,59.88
2022-11-24T18:29:22.757Z,63.08
2022-11-24T18:31:50.881Z,53.95
2022-11-24T18:34:17.264Z,63.75
2022-11-24T18:36:45.234Z,62.97
2022-11-24T18:39:17.807Z,71.82
2022-11-24T18:41:44.123Z,68.47
2022-11-24T18:44:10.540Z,72.20
2022-11-24T18:46:37.106Z,69.15
2022-11-24T18:49:03.456Z,57.20
2022-11-24T18:51:30.141Z,63.17
2022-11-24T18:54:01.825Z,67.18
2022-11-24T18:56:28.260Z,62.08
2022-11-24T18:58:54.857Z,62.83
2022-11-24T19:01:21.276Z,60.35
2022-11-24T19:03:49.094Z,67.22
2022-11-24T19:06:15.738Z,61.65
2022-11-24T19:08:42.281Z,65.60
2022-11-24T19:11:08.594Z,57.88
2022-11-24T19:13:35.065Z,79.45
2022-11-24T19:16:01.393Z,67.22
2022-11-24T19:18:27.877Z,70.93
2022-11-24T19:20:54.181Z,60.95
2022-11-24T19:23:20.641Z,58.72
2022-11-24T19:25:47.037Z,61.75
2022-11-24T19:28:16.909Z,60.72
2022-11-24T19:30:45.378Z,78.35
2022-11-24T19:33:11.733Z,64.65
2022-11-24T19:35:38.110Z,59.95
2022-11-24T19:38:04.466Z,61.20
2022-11-24T19:40:31.021Z,60.83
2022-11-24T19:42:57.346Z,63.60
2022-11-24T19:45:23.760Z,54.22
2022-11-24T19:47:50.125Z,52.83
2022-11-24T19:50:16.574Z,57.88
2022-11-24T19:52:42.907Z,58.53
2022-11-24T19:55:09.215Z,54.70
2022-11-24T19:57:35.603Z,53.83
2022-11-24T20:00:01.918Z,58.15
2022-11-24T20:02:29.656Z,52.25
2022-11-24T20:04:56.033Z,59.38
2022-11-24T20:07:22.406Z,51.97
2022-11-24T20:09:48.832Z,56.42
2022-11-24T20:12:15.147Z,57.67
2022-11-24T20:14:41.489Z,52.62
2022-11-24T20:17:07.811Z,58.45
2022-11-24T20:19:35.834Z,51.05
2022-11-24T20:22:02.190Z,57.70
2022-11-24T20:27:00.561Z,54.25
2022-11-24T20:29:28.459Z,54.45
2022-11-24T20:31:54.842Z,49.60
2022-11-24T20:34:21.340Z,46.65
2022-11-24T20:36:47.740Z,52.50
2022-11-24T20:39:14.107Z,48.47
2022-11-24T20:41:41.366Z,48.65
2022-11-24T20:44:08.577Z,46.40
2022-11-24T20:46:34.893Z,51.63
2022-11-24T20:49:05.605Z,45.08
2022-11-24T20:51:31.939Z,52.55
2022-11-24T20:53:58.319Z,44.30
2022-11-24T20:56:24.680Z,41.83
2022-11-24T20:58:51.090Z,43.28
2022-11-24T21:01:18.126Z,45.58
2022-11-24T21:03:44.511Z,41.13
2022-11-24T21:06:10.902Z,49.33
2022-11-24T21:11:11.029Z,43.58
2022-11-24T21:13:37.368Z,42.40
2022-11-24T21:16:04.064Z,48.10
2022-11-24T21:18:30.558Z,44.75
2022-11-24T21:20:56.987Z,42.60
2022-11-24T21:23:23.325Z,48.40
2022-11-24T21:25:49.711Z,41.95
2022-11-24T21:28:16.027Z,41.40
2022-11-24T21:30:42.337Z,37.28
2022-11-24T21:33:12.826Z,44.15
2022-11-24T21:35:39.188Z,40.42
2022-11-24T21:38:05.585Z,38.58
2022-11-24T21:40:32.219Z,41.95
2022-11-24T21:42:58.699Z,45.10
2022-11-24T21:45:25.246Z,43.03
2022-11-24T21:47:51.627Z,44.30
2022-11-24T21:50:17.946Z,35.58
2022-11-24T21:52:44.362Z,36.85
2022-11-24T21:55:10.778Z,38.00
2022-11-24T21:57:37.103Z,43.58
2022-11-24T22:00:03.414Z,41.30
2022-11-24T22:02:29.789Z,43.90
2022-11-24T22:04:57.773Z,44.83
2022-11-24T22:07:24.145Z,44.25
2022-11-24T22:09:50.509Z,38.00
2022-11-24T22:12:16.853Z,38.00
2022-11-24T22:14:43.557Z,41.10
2022-11-24T22:17:10.043Z,41.22
2022-11-24T22:19:36.512Z,37.65
2022-11-24T22:22:02.820Z,37.60
2022-11-24T22:24:29.129Z,35.35
2022-11-24T22:26:55.515Z,41.28
2022-11-24T22:29:22.159Z,37.95
2022-11-24T22:31:51.885Z,38.60
2022-11-24T22:34:18.198Z,38.42
2022-11-24T22:36:44.521Z,37.05
2022-11-24T22:39:10.830Z,33.85
2022-11-24T22:41:37.305Z,39.70
2022-11-24T22:44:03.728Z,38.05
2022-11-24T22:46:30.071Z,40.42
2022-11-24T22:48:56.466Z,39.63
2022-11-24T22:51:22.787Z,37.38
2022-11-24T22:53:49.136Z,34.72
2022-11-24T22:56:15.497Z,37.28
2022-11-24T22:58:42.214Z,38.85
2022-11-24T23:01:08.739Z,35.72
2022-11-24T23:03:35.222Z,36.75
2022-11-24T23:06:01.695Z,36.33
2022-11-24T23:08:28.022Z,38.65
2022-11-24T23:10:54.532Z,36.95
2022-11-24T23:13:20.844Z,38.95
2022-11-24T23:15:47.157Z,37.55
2022-11-24T23:18:16.974Z,36.60
2022-11-24T23:20:43.287Z,38.10
2022-11-24T23:23:09.602Z,39.55
2022-11-24T23:25:36.016Z,34.72
2022-11-24T23:28:02.312Z,40.30
2022-11-24T23:30:28.624Z,35.40
2022-11-24T23:32:54.963Z,52.30
2022-11-24T23:35:21.261Z,51.25
2022-11-24T23:38:06.463Z,42.65
2022-11-24T23:40:33.207Z,49.13
2022-11-24T23:42:59.515Z,41.37
2022-11-24T23:45:25.921Z,37.38
2022-11-24T23:47:52.244Z,39.53
2022-11-24T23:50:18.541Z,36.17
2022-11-24T23:52:45.163Z,28.75
2022-11-24T23:55:11.479Z,61.33
2022-11-24T23:57:37.799Z,61.67
